Rechercher aéroport 
image banner adimage banner ad
image banner ad

SSKS - Cachoeira do Sul Airport

Situé à Cachoeira Do Sul, Brazil

ICAO - SSKS, IATA - QDB

Données fournies par Airmate  

Information générale

Coordonnées: S30°0'8" W52°56'25"
Élévation : 252 feet MSL.
Variation magnétique : -16° East
Voir autres Aéroports à Rio Grande do Sul

Données opérationnelles

Accessible au public
Heure actuelle UTC:
Heure actuelle locale:
Météo à : SBSM - Santa Maria Airport ( 79 km )
METAR: SBSM 301600Z 09008KT 060V140 CAVOK 27/24 Q1007
TAF: TAF SBSM 300900Z 3012/3024 10010KT 9999 TSRA SCT030 FEW040CB TN20/3012Z TX24/3018Z BECMG 3014/3016 CAVOK RMK PED
Voir NOTAMs / SUP AIP / TFR affectant cet aéroport [VIEW]
Fréquences de communication: [VIEW]

Pistes:

Identifiant RWYQFULongueur (ft)Largeur (ft)SurfaceLDA (ft)
12334660ASP
30334660ASP

Coordonnées de l'aéroport

Adresse: Cachoeira Do Sul Brazil

Vue satellite de SSKS